Terminal Aerodrome Forecast
Issued by NWS

Home | Current Version | Previous Version | Text Only | Print | Product List | Glossary On
Versions: 1 2 3 4 5 6 7 8 9 10 11 12 13 14 15
496
FTUS44 KTSA 220540
TAFXNA
TAF
KXNA 220540Z 2206/2306 20010G17KT P6SM SCT025 BKN035 BKN100
     FM220700 22012G19KT P6SM SCT100
     FM221300 24017G26KT P6SM BKN025
     FM221900 26023G30KT P6SM SCT028 BKN035
     FM230400 28018G26KT P6SM SCT035 SCT250=

USA.gov is the U.S. government's official web portal to all federal, state and local government web resources and services.